sensor_id;sensor_type;location;lat;lon;timestamp;pressure;altitude;pressure_sealevel;temperature;humidity
70200;BME280;57587;55.688;37.600;2024-03-29T00:01:25;98799.88;;;5.46;51.57
70200;BME280;57587;55.688;37.600;2024-03-29T00:03:52;98794.91;;;5.51;50.72
70200;BME280;57587;55.688;37.600;2024-03-29T00:06:21;98794.22;;;5.58;51.09
70200;BME280;57587;55.688;37.600;2024-03-29T00:08:47;98798.34;;;5.60;50.87
70200;BME280;57587;55.688;37.600;2024-03-29T00:11:13;98799.88;;;5.54;51.27
70200;BME280;57587;55.688;37.600;2024-03-29T00:13:39;98794.56;;;5.54;51.39
70200;BME280;57587;55.688;37.600;2024-03-29T00:16:06;98787.75;;;5.52;50.88
70200;BME280;57587;55.688;37.600;2024-03-29T00:18:32;98784.09;;;5.61;51.01
70200;BME280;57587;55.688;37.600;2024-03-29T00:20:58;98779.94;;;5.59;51.41
70200;BME280;57587;55.688;37.600;2024-03-29T00:23:24;98774.97;;;5.55;50.92
70200;BME280;57587;55.688;37.600;2024-03-29T00:25:50;98776.81;;;5.55;51.15
70200;BME280;57587;55.688;37.600;2024-03-29T00:28:17;98772.19;;;5.49;51.99
70200;BME280;57587;55.688;37.600;2024-03-29T00:30:43;98772.69;;;5.44;51.61
70200;BME280;57587;55.688;37.600;2024-03-29T00:33:09;98765.38;;;5.46;52.16
70200;BME280;57587;55.688;37.600;2024-03-29T00:35:35;98760.09;;;5.46;52.06
70200;BME280;57587;55.688;37.600;2024-03-29T00:38:01;98755.13;;;5.43;51.74
70200;BME280;57587;55.688;37.600;2024-03-29T00:40:27;98759.28;;;5.38;52.18
70200;BME280;57587;55.688;37.600;2024-03-29T00:42:53;98757.09;;;5.41;52.19
70200;BME280;57587;55.688;37.600;2024-03-29T00:45:19;98749.97;;;5.42;52.29
70200;BME280;57587;55.688;37.600;2024-03-29T00:47:45;98755.78;;;5.45;51.83
70200;BME280;57587;55.688;37.600;2024-03-29T00:50:11;98746.28;;;5.51;51.68
70200;BME280;57587;55.688;37.600;2024-03-29T00:52:37;98739.47;;;5.57;51.63
70200;BME280;57587;55.688;37.600;2024-03-29T00:55:04;98746.63;;;5.48;51.86
70200;BME280;57587;55.688;37.600;2024-03-29T00:57:31;98729.56;;;5.50;52.02
70200;BME280;57587;55.688;37.600;2024-03-29T00:59:56;98726.88;;;5.59;52.20
70200;BME280;57587;55.688;37.600;2024-03-29T01:02:23;98726.69;;;5.60;52.00
70200;BME280;57587;55.688;37.600;2024-03-29T01:04:52;98723.75;;;5.55;51.98
70200;BME280;57587;55.688;37.600;2024-03-29T01:07:18;98723.44;;;5.42;52.13
70200;BME280;57587;55.688;37.600;2024-03-29T01:09:44;98719.81;;;5.43;52.76
70200;BME280;57587;55.688;37.600;2024-03-29T01:12:10;98711.06;;;5.34;52.65
70200;BME280;57587;55.688;37.600;2024-03-29T01:14:37;98703.09;;;5.34;53.07
70200;BME280;57587;55.688;37.600;2024-03-29T01:17:03;98701.78;;;5.30;52.83
70200;BME280;57587;55.688;37.600;2024-03-29T01:19:30;98713.16;;;5.39;53.00
70200;BME280;57587;55.688;37.600;2024-03-29T01:21:56;98705.88;;;5.41;52.61
70200;BME280;57587;55.688;37.600;2024-03-29T01:24:22;98713.34;;;5.45;52.77
70200;BME280;57587;55.688;37.600;2024-03-29T01:26:48;98695.41;;;5.47;52.80
70200;BME280;57587;55.688;37.600;2024-03-29T01:29:15;98699.72;;;5.48;53.17
70200;BME280;57587;55.688;37.600;2024-03-29T01:31:41;98702.06;;;5.43;52.79
70200;BME280;57587;55.688;37.600;2024-03-29T01:34:07;98688.44;;;5.46;53.13
70200;BME280;57587;55.688;37.600;2024-03-29T01:36:33;98692.06;;;5.53;52.64
70200;BME280;57587;55.688;37.600;2024-03-29T01:38:59;98689.06;;;5.57;52.64
70200;BME280;57587;55.688;37.600;2024-03-29T01:41:26;98695.50;;;5.62;52.51
70200;BME280;57587;55.688;37.600;2024-03-29T01:43:53;98677.75;;;5.63;52.68
70200;BME280;57587;55.688;37.600;2024-03-29T01:46:23;98678.41;;;5.65;52.61
70200;BME280;57587;55.688;37.600;2024-03-29T01:48:51;98677.13;;;5.61;52.76
70200;BME280;57587;55.688;37.600;2024-03-29T01:51:18;98673.44;;;5.62;52.63
70200;BME280;57587;55.688;37.600;2024-03-29T01:53:45;98672.31;;;5.56;53.20
70200;BME280;57587;55.688;37.600;2024-03-29T01:56:12;98667.19;;;5.54;53.00
70200;BME280;57587;55.688;37.600;2024-03-29T01:58:39;98665.88;;;5.50;53.30
70200;BME280;57587;55.688;37.600;2024-03-29T02:01:07;98658.78;;;5.43;53.82
70200;BME280;57587;55.688;37.600;2024-03-29T02:03:34;98658.31;;;5.39;53.57
70200;BME280;57587;55.688;37.600;2024-03-29T02:06:00;98654.81;;;5.39;54.15
70200;BME280;57587;55.688;37.600;2024-03-29T02:08:28;98645.41;;;5.36;53.46
70200;BME280;57587;55.688;37.600;2024-03-29T02:10:54;98646.72;;;5.32;53.71
70200;BME280;57587;55.688;37.600;2024-03-29T02:13:22;98631.50;;;5.26;54.16
70200;BME280;57587;55.688;37.600;2024-03-29T02:15:48;98632.97;;;5.37;54.14
70200;BME280;57587;55.688;37.600;2024-03-29T02:18:14;98632.63;;;5.40;53.67
70200;BME280;57587;55.688;37.600;2024-03-29T02:20:40;98621.88;;;5.33;54.29
70200;BME280;57587;55.688;37.600;2024-03-29T02:23:09;98627.19;;;5.33;53.99
70200;BME280;57587;55.688;37.600;2024-03-29T02:25:36;98625.97;;;5.36;53.75
70200;BME280;57587;55.688;37.600;2024-03-29T02:28:03;98612.91;;;5.34;54.04
70200;BME280;57587;55.688;37.600;2024-03-29T02:30:30;98613.38;;;5.38;53.99
70200;BME280;57587;55.688;37.600;2024-03-29T02:33:00;98618.53;;;5.39;53.63
70200;BME280;57587;55.688;37.600;2024-03-29T02:35:27;98612.56;;;5.37;53.92
70200;BME280;57587;55.688;37.600;2024-03-29T02:37:53;98607.72;;;5.41;53.83
70200;BME280;57587;55.688;37.600;2024-03-29T02:40:19;98615.81;;;5.47;53.42
70200;BME280;57587;55.688;37.600;2024-03-29T02:42:47;98612.03;;;5.42;53.65
70200;BME280;57587;55.688;37.600;2024-03-29T02:45:14;98615.53;;;5.42;53.92
70200;BME280;57587;55.688;37.600;2024-03-29T02:47:40;98617.16;;;5.43;54.35
70200;BME280;57587;55.688;37.600;2024-03-29T02:50:09;98610.84;;;5.44;53.77
70200;BME280;57587;55.688;37.600;2024-03-29T02:52:36;98607.84;;;5.47;53.94
70200;BME280;57587;55.688;37.600;2024-03-29T02:55:02;98612.47;;;5.53;54.13
70200;BME280;57587;55.688;37.600;2024-03-29T02:57:30;98603.22;;;5.49;54.01
70200;BME280;57587;55.688;37.600;2024-03-29T02:59:56;98595.59;;;5.46;53.31
70200;BME280;57587;55.688;37.600;2024-03-29T03:02:22;98594.44;;;5.49;54.04
70200;BME280;57587;55.688;37.600;2024-03-29T03:04:48;98586.63;;;5.47;53.73
70200;BME280;57587;55.688;37.600;2024-03-29T03:07:14;98568.84;;;5.56;53.52
70200;BME280;57587;55.688;37.600;2024-03-29T03:09:59;98570.34;;;5.50;54.12
70200;BME280;57587;55.688;37.600;2024-03-29T03:12:44;98566.88;;;5.50;53.46
70200;BME280;57587;55.688;37.600;2024-03-29T03:15:10;98568.38;;;5.52;53.54
70200;BME280;57587;55.688;37.600;2024-03-29T03:17:36;98565.41;;;5.47;54.32
70200;BME280;57587;55.688;37.600;2024-03-29T03:20:02;98565.75;;;5.44;54.25
70200;BME280;57587;55.688;37.600;2024-03-29T03:22:32;98557.44;;;5.47;53.63
70200;BME280;57587;55.688;37.600;2024-03-29T03:24:58;98551.50;;;5.45;54.20
70200;BME280;57587;55.688;37.600;2024-03-29T03:27:24;98567.06;;;5.48;53.91
70200;BME280;57587;55.688;37.600;2024-03-29T03:29:50;98557.28;;;5.49;53.94
70200;BME280;57587;55.688;37.600;2024-03-29T03:32:16;98548.31;;;5.50;53.73
70200;BME280;57587;55.688;37.600;2024-03-29T03:34:42;98554.63;;;5.49;53.50
70200;BME280;57587;55.688;37.600;2024-03-29T03:37:08;98556.09;;;5.51;53.40
70200;BME280;57587;55.688;37.600;2024-03-29T03:39:34;98558.81;;;5.43;54.29
70200;BME280;57587;55.688;37.600;2024-03-29T03:42:00;98563.16;;;5.36;54.04
70200;BME280;57587;55.688;37.600;2024-03-29T03:44:26;98562.81;;;5.39;53.89
70200;BME280;57587;55.688;37.600;2024-03-29T03:46:55;98552.97;;;5.48;53.88
70200;BME280;57587;55.688;37.600;2024-03-29T03:49:21;98552.09;;;5.55;53.92
70200;BME280;57587;55.688;37.600;2024-03-29T03:51:47;98543.31;;;5.55;54.25
70200;BME280;57587;55.688;37.600;2024-03-29T03:54:13;98546.25;;;5.60;53.91
70200;BME280;57587;55.688;37.600;2024-03-29T03:56:39;98553.50;;;5.66;53.54
70200;BME280;57587;55.688;37.600;2024-03-29T03:59:05;98538.88;;;5.70;53.30
70200;BME280;57587;55.688;37.600;2024-03-29T04:01:31;98539.97;;;5.76;53.32
70200;BME280;57587;55.688;37.600;2024-03-29T04:03:57;98534.97;;;5.81;53.01
70200;BME280;57587;55.688;37.600;2024-03-29T04:06:23;98548.53;;;5.86;52.79
70200;BME280;57587;55.688;37.600;2024-03-29T04:08:49;98528.91;;;5.95;52.49
70200;BME280;57587;55.688;37.600;2024-03-29T04:11:15;98524.38;;;6.34;51.97
70200;BME280;57587;55.688;37.600;2024-03-29T04:13:42;98514.31;;;6.44;51.08
70200;BME280;57587;55.688;37.600;2024-03-29T04:16:08;98513.69;;;6.57;50.77
70200;BME280;57587;55.688;37.600;2024-03-29T04:18:35;98507.69;;;6.84;50.39
70200;BME280;57587;55.688;37.600;2024-03-29T04:21:03;98515.75;;;7.27;49.74
70200;BME280;57587;55.688;37.600;2024-03-29T04:23:29;98504.34;;;7.76;48.29
70200;BME280;57587;55.688;37.600;2024-03-29T04:25:56;98506.63;;;8.36;46.77
70200;BME280;57587;55.688;37.600;2024-03-29T04:28:23;98505.53;;;8.93;45.39
70200;BME280;57587;55.688;37.600;2024-03-29T04:30:57;98504.19;;;9.17;44.64
70200;BME280;57587;55.688;37.600;2024-03-29T04:33:24;98503.94;;;9.05;44.58
70200;BME280;57587;55.688;37.600;2024-03-29T04:35:55;98498.13;;;8.95;44.96
70200;BME280;57587;55.688;37.600;2024-03-29T04:38:22;98503.50;;;8.53;45.65
70200;BME280;57587;55.688;37.600;2024-03-29T04:40:50;98480.28;;;8.19;46.22
70200;BME280;57587;55.688;37.600;2024-03-29T04:43:16;98480.69;;;7.88;47.05
70200;BME280;57587;55.688;37.600;2024-03-29T04:45:45;98470.13;;;7.73;47.46
70200;BME280;57587;55.688;37.600;2024-03-29T04:48:12;98463.13;;;7.44;47.95
70200;BME280;57587;55.688;37.600;2024-03-29T04:50:39;98471.81;;;7.31;48.71
70200;BME280;57587;55.688;37.600;2024-03-29T04:53:05;98463.28;;;7.21;49.02
70200;BME280;57587;55.688;37.600;2024-03-29T04:55:31;98462.50;;;7.06;49.09
70200;BME280;57587;55.688;37.600;2024-03-29T04:57:57;98464.34;;;7.05;49.41
70200;BME280;57587;55.688;37.600;2024-03-29T05:00:23;98462.59;;;6.76;50.09
70200;BME280;57587;55.688;37.600;2024-03-29T05:02:50;98452.44;;;6.65;50.64
70200;BME280;57587;55.688;37.600;2024-03-29T05:05:16;98452.72;;;6.55;50.61
70200;BME280;57587;55.688;37.600;2024-03-29T05:07:42;98444.69;;;6.49;50.84
70200;BME280;57587;55.688;37.600;2024-03-29T05:10:08;98439.28;;;6.42;51.56
70200;BME280;57587;55.688;37.600;2024-03-29T05:12:38;98444.78;;;6.40;50.79
70200;BME280;57587;55.688;37.600;2024-03-29T05:15:04;98429.09;;;6.60;50.63
70200;BME280;57587;55.688;37.600;2024-03-29T05:17:31;98421.09;;;6.75;50.76
70200;BME280;57587;55.688;37.600;2024-03-29T05:19:57;98430.91;;;6.96;50.26
70200;BME280;57587;55.688;37.600;2024-03-29T05:22:23;98433.03;;;7.22;49.27
70200;BME280;57587;55.688;37.600;2024-03-29T05:24:53;98422.50;;;7.35;48.75
70200;BME280;57587;55.688;37.600;2024-03-29T05:27:22;98422.78;;;7.97;47.61
70200;BME280;57587;55.688;37.600;2024-03-29T05:29:48;98423.88;;;8.44;45.88
70200;BME280;57587;55.688;37.600;2024-03-29T05:32:14;98439.75;;;8.65;45.31
70200;BME280;57587;55.688;37.600;2024-03-29T05:34:40;98427.63;;;8.21;46.20
70200;BME280;57587;55.688;37.600;2024-03-29T05:37:07;98433.81;;;7.94;47.11
70200;BME280;57587;55.688;37.600;2024-03-29T05:39:33;98424.69;;;7.75;47.13
70200;BME280;57587;55.688;37.600;2024-03-29T05:41:59;98425.28;;;7.49;48.13
70200;BME280;57587;55.688;37.600;2024-03-29T05:44:25;98417.47;;;7.69;48.12
70200;BME280;57587;55.688;37.600;2024-03-29T05:46:51;98418.53;;;7.74;47.76
70200;BME280;57587;55.688;37.600;2024-03-29T05:49:20;98403.31;;;8.38;46.25
70200;BME280;57587;55.688;37.600;2024-03-29T05:51:46;98407.91;;;8.50;45.99
70200;BME280;57587;55.688;37.600;2024-03-29T05:54:12;98420.34;;;8.37;46.03
70200;BME280;57587;55.688;37.600;2024-03-29T05:56:38;98438.34;;;8.28;46.29
70200;BME280;57587;55.688;37.600;2024-03-29T05:59:04;98438.41;;;8.06;46.86
70200;BME280;57587;55.688;37.600;2024-03-29T06:01:31;98422.53;;;7.92;47.14
70200;BME280;57587;55.688;37.600;2024-03-29T06:03:57;98431.53;;;7.91;47.13
70200;BME280;57587;55.688;37.600;2024-03-29T06:06:29;98433.59;;;7.67;47.47
70200;BME280;57587;55.688;37.600;2024-03-29T06:08:54;98445.03;;;7.39;48.06
70200;BME280;57587;55.688;37.600;2024-03-29T06:11:20;98440.75;;;7.38;48.14
70200;BME280;57587;55.688;37.600;2024-03-29T06:13:46;98434.34;;;7.33;48.50
70200;BME280;57587;55.688;37.600;2024-03-29T06:16:23;98421.09;;;7.18;49.13
70200;BME280;57587;55.688;37.600;2024-03-29T06:19:08;98412.50;;;7.16;49.07
70200;BME280;57587;55.688;37.600;2024-03-29T06:21:34;98425.34;;;7.34;48.80
70200;BME280;57587;55.688;37.600;2024-03-29T06:24:08;98417.69;;;7.24;49.02
70200;BME280;57587;55.688;37.600;2024-03-29T06:26:38;98419.63;;;7.37;48.81
70200;BME280;57587;55.688;37.600;2024-03-29T06:29:04;98417.66;;;7.46;48.21
70200;BME280;57587;55.688;37.600;2024-03-29T06:31:30;98436.59;;;7.57;48.11
70200;BME280;57587;55.688;37.600;2024-03-29T06:33:59;98431.72;;;7.61;48.11
70200;BME280;57587;55.688;37.600;2024-03-29T06:36:25;98422.56;;;7.70;47.57
70200;BME280;57587;55.688;37.600;2024-03-29T06:38:53;98429.97;;;7.47;48.14
70200;BME280;57587;55.688;37.600;2024-03-29T06:41:19;98416.09;;;7.51;47.93
70200;BME280;57587;55.688;37.600;2024-03-29T06:43:45;98419.91;;;7.42;48.60
70200;BME280;57587;55.688;37.600;2024-03-29T06:46:13;98414.44;;;7.50;48.42
70200;BME280;57587;55.688;37.600;2024-03-29T06:48:39;98431.06;;;7.80;47.89
70200;BME280;57587;55.688;37.600;2024-03-29T06:51:05;98430.47;;;7.85;47.53
70200;BME280;57587;55.688;37.600;2024-03-29T06:53:31;98447.56;;;7.69;48.06
70200;BME280;57587;55.688;37.600;2024-03-29T06:55:59;98422.00;;;7.47;48.45
70200;BME280;57587;55.688;37.600;2024-03-29T06:58:25;98414.78;;;7.41;48.72
70200;BME280;57587;55.688;37.600;2024-03-29T07:00:51;98416.22;;;7.43;48.66
70200;BME280;57587;55.688;37.600;2024-03-29T07:03:18;98411.44;;;7.32;48.93
70200;BME280;57587;55.688;37.600;2024-03-29T07:05:47;98406.16;;;7.38;48.97
70200;BME280;57587;55.688;37.600;2024-03-29T07:08:13;98402.13;;;7.49;48.78
70200;BME280;57587;55.688;37.600;2024-03-29T07:10:40;98403.06;;;7.63;48.35
70200;BME280;57587;55.688;37.600;2024-03-29T07:13:07;98409.66;;;7.67;48.08
70200;BME280;57587;55.688;37.600;2024-03-29T07:15:33;98403.13;;;7.70;48.32
70200;BME280;57587;55.688;37.600;2024-03-29T07:18:02;98403.00;;;7.78;48.16
70200;BME280;57587;55.688;37.600;2024-03-29T07:20:31;98404.97;;;7.69;48.44
70200;BME280;57587;55.688;37.600;2024-03-29T07:22:57;98399.38;;;7.64;48.63
70200;BME280;57587;55.688;37.600;2024-03-29T07:25:23;98397.50;;;7.58;48.41
70200;BME280;57587;55.688;37.600;2024-03-29T07:27:49;98397.41;;;7.45;48.83
70200;BME280;57587;55.688;37.600;2024-03-29T07:30:16;98397.91;;;7.33;49.20
70200;BME280;57587;55.688;37.600;2024-03-29T07:32:42;98397.75;;;7.35;49.39
70200;BME280;57587;55.688;37.600;2024-03-29T07:35:08;98394.38;;;7.26;49.39
70200;BME280;57587;55.688;37.600;2024-03-29T07:37:34;98392.84;;;7.38;49.67
70200;BME280;57587;55.688;37.600;2024-03-29T07:40:00;98382.00;;;7.40;49.42
70200;BME280;57587;55.688;37.600;2024-03-29T07:42:26;98375.81;;;7.33;49.50
70200;BME280;57587;55.688;37.600;2024-03-29T07:44:52;98379.44;;;7.25;49.78
70200;BME280;57587;55.688;37.600;2024-03-29T07:47:18;98384.25;;;7.15;49.94
70200;BME280;57587;55.688;37.600;2024-03-29T07:49:44;98387.28;;;7.12;49.92
70200;BME280;57587;55.688;37.600;2024-03-29T07:52:11;98364.06;;;6.99;50.65
70200;BME280;57587;55.688;37.600;2024-03-29T07:54:38;98409.47;;;6.98;50.75
70200;BME280;57587;55.688;37.600;2024-03-29T07:57:04;98372.78;;;6.93;50.84
70200;BME280;57587;55.688;37.600;2024-03-29T07:59:34;98367.28;;;6.95;51.36
70200;BME280;57587;55.688;37.600;2024-03-29T08:02:00;98385.69;;;6.96;52.15
70200;BME280;57587;55.688;37.600;2024-03-29T08:04:28;98362.97;;;6.93;52.84
70200;BME280;57587;55.688;37.600;2024-03-29T08:06:54;98370.56;;;6.97;53.66
70200;BME280;57587;55.688;37.600;2024-03-29T08:09:20;98375.66;;;6.91;53.98
70200;BME280;57587;55.688;37.600;2024-03-29T08:11:46;98361.81;;;6.81;54.67
70200;BME280;57587;55.688;37.600;2024-03-29T08:14:12;98352.47;;;6.85;55.89
70200;BME280;57587;55.688;37.600;2024-03-29T08:16:38;98336.69;;;7.05;56.75
70200;BME280;57587;55.688;37.600;2024-03-29T08:19:04;98325.06;;;7.06;55.81
70200;BME280;57587;55.688;37.600;2024-03-29T08:21:30;98323.06;;;7.15;56.56
70200;BME280;57587;55.688;37.600;2024-03-29T08:23:56;98337.66;;;7.19;56.42
70200;BME280;57587;55.688;37.600;2024-03-29T08:26:23;98358.63;;;7.07;56.20
70200;BME280;57587;55.688;37.600;2024-03-29T08:28:50;98350.56;;;7.01;56.03
70200;BME280;57587;55.688;37.600;2024-03-29T08:31:16;98347.84;;;7.15;56.28
70200;BME280;57587;55.688;37.600;2024-03-29T08:33:42;98361.44;;;7.06;55.67
70200;BME280;57587;55.688;37.600;2024-03-29T08:36:09;98362.22;;;7.00;55.95
70200;BME280;57587;55.688;37.600;2024-03-29T08:38:38;98365.00;;;7.13;56.11
70200;BME280;57587;55.688;37.600;2024-03-29T08:41:08;98366.47;;;7.15;55.61
70200;BME280;57587;55.688;37.600;2024-03-29T08:43:35;98374.63;;;7.14;55.12
70200;BME280;57587;55.688;37.600;2024-03-29T08:46:01;98354.38;;;7.13;54.94
70200;BME280;57587;55.688;37.600;2024-03-29T08:48:27;98361.91;;;7.09;55.09
70200;BME280;57587;55.688;37.600;2024-03-29T08:50:54;98342.78;;;6.99;55.32
70200;BME280;57587;55.688;37.600;2024-03-29T08:53:20;98346.94;;;7.08;54.83
70200;BME280;57587;55.688;37.600;2024-03-29T08:55:48;98344.88;;;7.04;55.51
70200;BME280;57587;55.688;37.600;2024-03-29T08:58:16;98337.84;;;6.96;54.41
70200;BME280;57587;55.688;37.600;2024-03-29T09:00:52;98354.88;;;7.02;55.18
70200;BME280;57587;55.688;37.600;2024-03-29T09:03:20;98360.41;;;7.00;54.57
70200;BME280;57587;55.688;37.600;2024-03-29T09:05:46;98345.63;;;6.98;55.06
70200;BME280;57587;55.688;37.600;2024-03-29T09:08:12;98360.19;;;7.02;54.81
70200;BME280;57587;55.688;37.600;2024-03-29T09:10:38;98349.75;;;7.00;55.07
70200;BME280;57587;55.688;37.600;2024-03-29T09:13:04;98338.28;;;7.00;54.15
70200;BME280;57587;55.688;37.600;2024-03-29T09:15:33;98336.63;;;6.99;54.94
70200;BME280;57587;55.688;37.600;2024-03-29T09:17:59;98337.88;;;7.03;54.54
70200;BME280;57587;55.688;37.600;2024-03-29T09:20:28;98325.34;;;7.18;54.50
70200;BME280;57587;55.688;37.600;2024-03-29T09:22:54;98334.72;;;7.14;54.39
70200;BME280;57587;55.688;37.600;2024-03-29T09:25:20;98327.22;;;7.24;54.20
70200;BME280;57587;55.688;37.600;2024-03-29T09:27:46;98340.78;;;7.29;53.70
70200;BME280;57587;55.688;37.600;2024-03-29T09:30:14;98336.94;;;7.32;53.68
70200;BME280;57587;55.688;37.600;2024-03-29T09:32:41;98345.34;;;7.35;53.57
70200;BME280;57587;55.688;37.600;2024-03-29T09:35:07;98339.19;;;7.35;53.38
70200;BME280;57587;55.688;37.600;2024-03-29T09:37:33;98325.91;;;7.35;54.20
70200;BME280;57587;55.688;37.600;2024-03-29T09:40:04;98321.03;;;7.45;53.47
70200;BME280;57587;55.688;37.600;2024-03-29T09:42:32;98337.16;;;7.37;53.38
70200;BME280;57587;55.688;37.600;2024-03-29T09:45:02;98336.53;;;7.35;53.40
70200;BME280;57587;55.688;37.600;2024-03-29T09:47:32;98338.56;;;7.33;53.91
70200;BME280;57587;55.688;37.600;2024-03-29T09:50:02;98344.22;;;7.23;54.10
70200;BME280;57587;55.688;37.600;2024-03-29T09:52:32;98319.50;;;7.29;53.99
70200;BME280;57587;55.688;37.600;2024-03-29T09:55:00;98319.94;;;7.33;53.90
70200;BME280;57587;55.688;37.600;2024-03-29T09:57:31;98344.69;;;7.33;53.99
70200;BME280;57587;55.688;37.600;2024-03-29T09:59:57;98330.22;;;7.43;53.75
70200;BME280;57587;55.688;37.600;2024-03-29T10:02:28;98319.84;;;7.48;53.53
70200;BME280;57587;55.688;37.600;2024-03-29T10:04:56;98337.75;;;7.32;53.93
70200;BME280;57587;55.688;37.600;2024-03-29T10:07:24;98310.78;;;7.42;53.89
70200;BME280;57587;55.688;37.600;2024-03-29T10:09:50;98326.84;;;7.55;53.22
70200;BME280;57587;55.688;37.600;2024-03-29T10:12:16;98321.50;;;7.55;53.18
70200;BME280;57587;55.688;37.600;2024-03-29T10:14:47;98326.50;;;7.65;52.98
70200;BME280;57587;55.688;37.600;2024-03-29T10:17:20;98307.09;;;7.71;52.87
70200;BME280;57587;55.688;37.600;2024-03-29T10:19:47;98293.47;;;7.94;52.83
70200;BME280;57587;55.688;37.600;2024-03-29T10:22:13;98291.13;;;8.19;51.64
70200;BME280;57587;55.688;37.600;2024-03-29T10:24:39;98299.34;;;8.24;52.17
70200;BME280;57587;55.688;37.600;2024-03-29T10:27:05;98301.91;;;8.46;51.53
70200;BME280;57587;55.688;37.600;2024-03-29T10:29:32;98301.78;;;8.26;51.75
70200;BME280;57587;55.688;37.600;2024-03-29T10:31:58;98290.69;;;8.16;51.64
70200;BME280;57587;55.688;37.600;2024-03-29T10:34:27;98290.69;;;8.09;51.97
70200;BME280;57587;55.688;37.600;2024-03-29T10:37:01;98292.31;;;8.10;51.69
70200;BME280;57587;55.688;37.600;2024-03-29T10:39:29;98298.88;;;8.14;52.09
70200;BME280;57587;55.688;37.600;2024-03-29T10:41:56;98274.38;;;8.39;51.75
70200;BME280;57587;55.688;37.600;2024-03-29T10:44:23;98269.13;;;8.72;50.95
70200;BME280;57587;55.688;37.600;2024-03-29T10:46:50;98266.25;;;9.00;50.08
70200;BME280;57587;55.688;37.600;2024-03-29T10:49:20;98274.88;;;9.42;49.54
70200;BME280;57587;55.688;37.600;2024-03-29T10:51:47;98276.69;;;9.35;49.82
70200;BME280;57587;55.688;37.600;2024-03-29T10:54:14;98271.97;;;9.43;48.71
70200;BME280;57587;55.688;37.600;2024-03-29T10:56:40;98275.25;;;9.52;48.55
70200;BME280;57587;55.688;37.600;2024-03-29T10:59:18;98263.56;;;9.40;49.14
70200;BME280;57587;55.688;37.600;2024-03-29T11:02:00;98287.16;;;9.43;49.23
70200;BME280;57587;55.688;37.600;2024-03-29T11:04:29;98262.53;;;9.34;49.64
70200;BME280;57587;55.688;37.600;2024-03-29T11:07:01;98263.16;;;9.16;49.63
70200;BME280;57587;55.688;37.600;2024-03-29T11:09:33;98260.53;;;8.96;50.92
70200;BME280;57587;55.688;37.600;2024-03-29T11:12:02;98267.69;;;9.03;50.78
70200;BME280;57587;55.688;37.600;2024-03-29T11:14:40;98262.38;;;8.96;50.28
70200;BME280;57587;55.688;37.600;2024-03-29T11:17:10;98244.72;;;9.15;50.17
70200;BME280;57587;55.688;37.600;2024-03-29T11:19:38;98251.91;;;9.14;50.63
70200;BME280;57587;55.688;37.600;2024-03-29T11:22:05;98249.41;;;9.19;50.34
70200;BME280;57587;55.688;37.600;2024-03-29T11:24:32;98243.25;;;9.26;50.27
70200;BME280;57587;55.688;37.600;2024-03-29T11:27:13;98246.31;;;9.42;50.66
70200;BME280;57587;55.688;37.600;2024-03-29T11:29:41;98252.22;;;9.64;49.94
70200;BME280;57587;55.688;37.600;2024-03-29T11:32:09;98247.28;;;9.61;49.30
70200;BME280;57587;55.688;37.600;2024-03-29T11:34:35;98241.06;;;9.81;49.70
70200;BME280;57587;55.688;37.600;2024-03-29T11:37:09;98247.06;;;9.69;49.06
70200;BME280;57587;55.688;37.600;2024-03-29T11:39:35;98235.41;;;9.44;50.02
70200;BME280;57587;55.688;37.600;2024-03-29T11:42:02;98239.56;;;9.27;50.81
70200;BME280;57587;55.688;37.600;2024-03-29T11:44:28;98232.16;;;9.22;50.84
70200;BME280;57587;55.688;37.600;2024-03-29T11:46:57;98233.41;;;9.33;50.30
70200;BME280;57587;55.688;37.600;2024-03-29T11:49:24;98240.81;;;9.17;51.25
70200;BME280;57587;55.688;37.600;2024-03-29T11:51:50;98246.56;;;9.14;51.30
70200;BME280;57587;55.688;37.600;2024-03-29T11:54:16;98251.28;;;9.12;51.79
70200;BME280;57587;55.688;37.600;2024-03-29T11:56:42;98249.66;;;9.11;51.24
70200;BME280;57587;55.688;37.600;2024-03-29T11:59:08;98237.72;;;9.20;51.24
70200;BME280;57587;55.688;37.600;2024-03-29T12:01:36;98227.44;;;9.24;51.84
70200;BME280;57587;55.688;37.600;2024-03-29T12:04:05;98239.16;;;9.16;51.87
70200;BME280;57587;55.688;37.600;2024-03-29T12:06:31;98234.25;;;9.20;52.42
70200;BME280;57587;55.688;37.600;2024-03-29T12:08:57;98232.97;;;9.22;52.27
70200;BME280;57587;55.688;37.600;2024-03-29T12:11:23;98233.56;;;9.38;52.00
70200;BME280;57587;55.688;37.600;2024-03-29T12:13:51;98236.25;;;9.38;51.77
70200;BME280;57587;55.688;37.600;2024-03-29T12:16:17;98236.22;;;9.44;51.71
70200;BME280;57587;55.688;37.600;2024-03-29T12:18:46;98245.47;;;9.55;52.16
70200;BME280;57587;55.688;37.600;2024-03-29T12:21:12;98238.84;;;9.71;51.74
70200;BME280;57587;55.688;37.600;2024-03-29T12:23:47;98233.84;;;9.88;51.49
70200;BME280;57587;55.688;37.600;2024-03-29T12:26:14;98240.75;;;10.02;51.39
70200;BME280;57587;55.688;37.600;2024-03-29T12:28:40;98241.72;;;10.14;51.32
70200;BME280;57587;55.688;37.600;2024-03-29T12:31:09;98246.59;;;10.24;51.37
70200;BME280;57587;55.688;37.600;2024-03-29T12:33:35;98234.28;;;10.23;51.06
70200;BME280;57587;55.688;37.600;2024-03-29T12:36:01;98240.66;;;10.29;51.08
70200;BME280;57587;55.688;37.600;2024-03-29T12:38:27;98232.59;;;10.35;51.21
70200;BME280;57587;55.688;37.600;2024-03-29T12:40:54;98244.34;;;10.34;51.02
70200;BME280;57587;55.688;37.600;2024-03-29T12:43:22;98223.16;;;10.33;50.78
70200;BME280;57587;55.688;37.600;2024-03-29T12:45:51;98232.59;;;10.35;50.83
70200;BME280;57587;55.688;37.600;2024-03-29T12:48:20;98227.59;;;10.46;50.45
70200;BME280;57587;55.688;37.600;2024-03-29T12:50:47;98223.84;;;10.53;50.39
70200;BME280;57587;55.688;37.600;2024-03-29T12:53:14;98231.69;;;10.48;50.92
70200;BME280;57587;55.688;37.600;2024-03-29T12:55:47;98226.13;;;10.50;50.96
70200;BME280;57587;55.688;37.600;2024-03-29T12:58:15;98217.50;;;10.48;51.07
70200;BME280;57587;55.688;37.600;2024-03-29T13:00:42;98227.53;;;10.52;50.80